createdAt,value
2022-10-05T00:00:02.189Z,8.2
2022-10-05T00:05:02.054Z,8.1
2022-10-05T00:10:01.619Z,8.0
2022-10-05T00:15:09.307Z,7.6
2022-10-05T00:20:01.629Z,7.0
2022-10-05T00:25:01.594Z,7.2
2022-10-05T00:30:10.324Z,7.1
2022-10-05T00:35:01.393Z,7.4
2022-10-05T00:40:06.364Z,7.2
2022-10-05T00:45:08.328Z,8.3
2022-10-05T00:50:01.267Z,8.3
2022-10-05T00:55:01.651Z,8.4
2022-10-05T01:00:05.932Z,8.2
2022-10-05T01:05:11.732Z,8.0
2022-10-05T01:10:01.551Z,7.5
2022-10-05T01:15:15.313Z,6.8
2022-10-05T01:20:01.045Z,6.8
2022-10-05T01:25:01.408Z,6.9
2022-10-05T01:31:17.402Z,6.5
2022-10-05T01:36:01.832Z,6.9
2022-10-05T01:41:01.542Z,7.6
2022-10-05T01:46:01.587Z,7.7
2022-10-05T01:51:01.434Z,8.0
2022-10-05T01:56:17.434Z,8.7
2022-10-05T02:01:01.580Z,9.0
2022-10-05T02:06:01.191Z,9.3
2022-10-05T02:11:01.904Z,10.1
2022-10-05T02:16:06.319Z,10.3
2022-10-05T02:21:01.650Z,10.2
2022-10-05T02:26:02.641Z,10.2
2022-10-05T02:31:01.918Z,10.0
2022-10-05T02:36:01.650Z,9.6
2022-10-05T02:46:17.451Z,10.0
2022-10-05T02:51:01.685Z,10.3
2022-10-05T02:56:01.461Z,11.1
2022-10-05T03:01:01.560Z,12.0
2022-10-05T03:06:01.531Z,12.6
2022-10-05T03:16:01.438Z,13.0
2022-10-05T03:21:01.585Z,12.5
2022-10-05T03:26:01.664Z,12.0
2022-10-05T03:31:01.780Z,11.9
2022-10-05T03:36:08.952Z,11.6
2022-10-05T03:41:11.634Z,11.2
2022-10-05T03:46:01.468Z,10.6
2022-10-05T03:56:08.322Z,10.2
2022-10-05T04:01:01.713Z,10.9
2022-10-05T04:06:07.532Z,12.1
2022-10-05T04:11:01.610Z,13.1
2022-10-05T04:16:01.657Z,13.9
2022-10-05T04:21:01.638Z,13.7
2022-10-05T04:26:01.480Z,13.4
2022-10-05T04:31:01.730Z,11.6
2022-10-05T04:36:10.460Z,10.6
2022-10-05T04:41:01.391Z,9.0
2022-10-05T04:46:10.304Z,9.0
2022-10-05T04:51:13.574Z,16.4
2022-10-05T04:56:12.099Z,33.3
2022-10-05T05:01:11.222Z,41.6
2022-10-05T05:11:01.359Z,47.6
2022-10-05T05:16:07.568Z,40.9
2022-10-05T05:21:01.582Z,28.7
2022-10-05T05:26:01.514Z,23.1
2022-10-05T05:31:01.816Z,20.2
2022-10-05T05:36:01.557Z,19.1
2022-10-05T05:41:01.654Z,18.8
2022-10-05T05:46:01.620Z,15.2
2022-10-05T05:51:01.531Z,13.7
2022-10-05T05:56:01.478Z,14.1
2022-10-05T06:01:01.587Z,13.2
2022-10-05T06:06:01.601Z,13.6
2022-10-05T06:11:01.529Z,14.6
2022-10-05T06:16:01.817Z,14.8
2022-10-05T06:21:01.684Z,14.4
2022-10-05T06:26:01.599Z,15.8
2022-10-05T06:31:01.674Z,15.1
2022-10-05T06:36:14.405Z,14.7
2022-10-05T06:41:09.171Z,15.1
2022-10-05T06:46:01.843Z,15.1
2022-10-05T06:56:07.922Z,15.7
2022-10-05T07:01:07.106Z,15.9
2022-10-05T07:06:01.639Z,15.5
2022-10-05T07:11:17.334Z,15.5
2022-10-05T07:16:01.851Z,15.1
2022-10-05T07:21:17.078Z,15.3
2022-10-05T07:26:06.017Z,14.8
2022-10-05T07:31:17.868Z,14.4
2022-10-05T07:36:08.135Z,13.1
2022-10-05T07:41:01.417Z,12.9
2022-10-05T07:46:01.753Z,12.2
2022-10-05T07:52:05.693Z,11.7
2022-10-05T07:57:10.630Z,11.4
2022-10-05T08:02:18.194Z,11.6
2022-10-05T08:07:04.712Z,10.9
2022-10-05T08:12:17.495Z,9.9
2022-10-05T08:17:01.615Z,9.3
2022-10-05T08:22:01.799Z,8.6
2022-10-05T08:27:01.582Z,8.0
2022-10-05T08:32:05.658Z,7.6
2022-10-05T08:37:01.613Z,7.6
2022-10-05T08:42:01.632Z,7.8
2022-10-05T08:52:01.657Z,8.0
2022-10-05T08:57:01.639Z,8.0
2022-10-05T09:02:13.581Z,8.6
2022-10-05T09:12:16.952Z,8.8
2022-10-05T09:17:17.207Z,9.3
2022-10-05T09:22:01.693Z,9.4
2022-10-05T09:27:09.041Z,9.5
2022-10-05T09:32:17.045Z,10.0
2022-10-05T09:37:02.647Z,9.8
2022-10-05T09:47:01.587Z,9.9
2022-10-05T09:52:01.660Z,10.0
2022-10-05T09:57:01.578Z,9.9
2022-10-05T10:02:01.707Z,10.5
2022-10-05T10:07:01.610Z,10.8
2022-10-05T10:12:01.700Z,10.2
2022-10-05T10:22:01.808Z,10.0
2022-10-05T10:27:11.067Z,9.2
2022-10-05T10:32:01.518Z,8.9
2022-10-05T10:37:17.146Z,9.0
2022-10-05T10:42:01.593Z,8.8
2022-10-05T10:47:16.296Z,8.8
2022-10-05T10:52:09.580Z,9.2
2022-10-05T10:57:01.484Z,9.0
2022-10-05T11:02:01.819Z,8.6
2022-10-05T11:07:17.238Z,8.3
2022-10-05T11:12:01.573Z,8.4
2022-10-05T11:17:17.279Z,8.2
2022-10-05T11:22:12.163Z,8.1
2022-10-05T11:27:11.238Z,8.3
2022-10-05T11:32:01.535Z,8.1
2022-10-05T11:37:01.473Z,7.6
2022-10-05T11:42:01.628Z,7.0
2022-10-05T11:47:01.537Z,6.8
2022-10-05T11:52:01.581Z,6.2
2022-10-05T11:57:02.442Z,5.6
2022-10-05T12:02:01.518Z,5.8
2022-10-05T12:07:01.608Z,6.0
2022-10-05T12:17:01.521Z,5.8
2022-10-05T12:22:01.486Z,6.2
2022-10-05T12:27:01.644Z,5.6
2022-10-05T12:32:01.604Z,4.9
2022-10-05T12:37:05.767Z,4.9
2022-10-05T12:42:01.750Z,5.2
2022-10-05T12:47:01.640Z,5.2
2022-10-05T12:52:01.625Z,5.4
2022-10-05T12:57:01.634Z,5.5
2022-10-05T13:12:01.710Z,5.4
2022-10-05T13:17:01.766Z,5.6
2022-10-05T13:22:01.618Z,6.0
2022-10-05T13:27:01.618Z,6.2
2022-10-05T13:42:01.776Z,5.6
2022-10-05T13:47:07.839Z,5.3
2022-10-05T13:52:01.595Z,5.4
2022-10-05T13:57:01.421Z,4.8
2022-10-05T14:02:01.650Z,5.0
2022-10-05T14:07:01.505Z,4.7
2022-10-05T14:12:01.665Z,4.8
2022-10-05T14:22:01.468Z,4.1
2022-10-05T14:27:01.655Z,3.6
2022-10-05T14:32:17.808Z,3.3
2022-10-05T14:37:01.514Z,2.8
2022-10-05T14:42:01.552Z,2.6
2022-10-05T14:47:01.581Z,2.5
2022-10-05T14:52:17.288Z,2.7
2022-10-05T14:57:01.515Z,2.7
2022-10-05T15:02:17.109Z,2.6
2022-10-05T15:07:04.503Z,2.7
2022-10-05T15:12:01.534Z,3.1
2022-10-05T15:22:01.568Z,3.2
2022-10-05T15:27:01.550Z,3.6
2022-10-05T15:32:01.564Z,3.7
2022-10-05T15:37:17.237Z,3.7
2022-10-05T15:47:04.223Z,4.4
2022-10-05T15:57:01.558Z,4.8
2022-10-05T16:03:11.965Z,4.7
2022-10-05T16:08:02.007Z,5.2
2022-10-05T16:13:01.707Z,4.7
2022-10-05T16:18:01.529Z,5.4
2022-10-05T16:23:01.533Z,5.2
2022-10-05T16:33:01.647Z,5.0
2022-10-05T16:38:01.494Z,4.8
2022-10-05T16:43:09.429Z,4.6
2022-10-05T16:48:11.519Z,4.7
2022-10-05T16:54:14.704Z,4.8
2022-10-05T16:59:01.611Z,5.7
2022-10-05T17:04:01.553Z,6.9
2022-10-05T17:09:01.581Z,7.6
2022-10-05T17:14:11.213Z,8.5
2022-10-05T17:19:01.485Z,9.6
2022-10-05T17:24:01.710Z,9.4
2022-10-05T17:29:01.536Z,9.9
2022-10-05T17:34:01.544Z,11.8
2022-10-05T17:39:01.342Z,15.8
2022-10-05T17:44:01.396Z,17.4
2022-10-05T17:49:01.392Z,18.8
2022-10-05T17:54:01.359Z,19.4
2022-10-05T17:59:01.239Z,19.6
2022-10-05T18:04:01.357Z,17.2
2022-10-05T18:14:17.195Z,17.8
2022-10-05T18:19:12.737Z,18.2
2022-10-05T18:24:17.540Z,17.7
2022-10-05T18:29:01.524Z,18.3
2022-10-05T18:34:01.217Z,19.5
2022-10-05T18:39:01.844Z,19.9
2022-10-05T18:44:01.594Z,19.5
2022-10-05T18:49:01.457Z,19.8
2022-10-05T18:54:01.495Z,19.6
2022-10-05T18:59:01.621Z,18.0
2022-10-05T19:04:01.483Z,18.2
2022-10-05T19:09:01.601Z,18.8
2022-10-05T19:14:01.621Z,17.8
2022-10-05T19:19:01.643Z,17.0
2022-10-05T19:29:01.623Z,15.6
2022-10-05T19:34:09.443Z,15.0
2022-10-05T19:39:06.677Z,14.9
2022-10-05T19:44:16.920Z,14.2
2022-10-05T19:49:01.478Z,13.4
2022-10-05T19:54:17.405Z,13.1
2022-10-05T19:59:01.601Z,12.6
2022-10-05T20:04:01.619Z,11.9
2022-10-05T20:09:01.465Z,11.3
2022-10-05T20:14:01.599Z,11.2
2022-10-05T20:24:01.353Z,10.8
2022-10-05T20:29:01.436Z,11.2
2022-10-05T20:34:02.108Z,11.7
2022-10-05T20:39:01.639Z,11.8
2022-10-05T20:44:01.718Z,11.6
2022-10-05T20:49:01.679Z,12.4
2022-10-05T20:54:01.683Z,12.4
2022-10-05T20:59:01.521Z,12.4
2022-10-05T21:04:01.647Z,12.6
2022-10-05T21:09:02.072Z,12.2
2022-10-05T21:15:03.131Z,11.6
2022-10-05T21:20:01.230Z,11.1
2022-10-05T21:30:01.917Z,10.6
2022-10-05T21:35:01.731Z,9.7
2022-10-05T21:40:01.529Z,9.6
2022-10-05T21:45:02.102Z,10.6
2022-10-05T21:50:01.616Z,10.8
2022-10-05T21:55:01.546Z,10.3
2022-10-05T22:00:05.854Z,10.8
2022-10-05T22:05:01.582Z,10.0
2022-10-05T22:10:02.140Z,8.6
2022-10-05T22:15:02.023Z,7.5
2022-10-05T22:21:01.634Z,7.4
2022-10-05T22:26:01.631Z,7.1
2022-10-05T22:31:01.688Z,7.8
2022-10-05T22:36:01.612Z,7.7
2022-10-05T22:41:01.599Z,7.7
2022-10-05T22:46:01.722Z,7.4
2022-10-05T22:51:01.698Z,7.6
2022-10-05T22:56:01.630Z,7.0
2022-10-05T23:01:01.735Z,7.3
2022-10-05T23:06:01.687Z,7.6
2022-10-05T23:11:01.655Z,7.9
2022-10-05T23:16:01.613Z,7.4
2022-10-05T23:21:01.642Z,7.6
2022-10-05T23:26:01.615Z,7.2
2022-10-05T23:31:04.059Z,6.8
2022-10-05T23:36:01.630Z,6.7
2022-10-05T23:51:02.094Z,7.2
2022-10-05T23:56:01.610Z,7.4
